Time;durP1;ratioP1;P1;durP2;ratioP2;P2;SDS_P1;SDS_P2;PMS_P1;PMS_P2;Temp;Humidity;BMP_temperature;BMP_pressure;BME280_temperature;BME280_humidity;BME280_pressure;Samples;Min_cycle;Max_cycle;Signal;HPM_P1;HPM_P2
2023/09/17 00:00:30;;;;;;;12.77;8.43;;;;;;;14.92;100.00;95865.53;1034524;28;20029;-74
2023/09/17 00:01:00;;;;;;;13.93;9.25;;;;;;;14.92;100.00;95866.31;1030558;28;20033;-74
2023/09/17 00:01:31;;;;;;;13.65;9.10;;;;;;;14.92;100.00;95865.53;1032813;28;20030;-74
2023/09/17 00:02:01;;;;;;;12.98;9.30;;;;;;;14.91;100.00;95864.75;1030440;28;20026;-74
2023/09/17 00:02:32;;;;;;;13.32;8.85;;;;;;;14.91;100.00;95866.63;1034169;28;20030;-75
2023/09/17 00:03:03;;;;;;;11.18;8.75;;;;;;;14.91;100.00;95870.06;1034444;28;20030;-74
2023/09/17 00:03:33;;;;;;;12.68;8.13;;;;;;;14.91;100.00;95871.91;1034768;28;20057;-77
2023/09/17 00:04:06;;;;;;;11.90;9.02;;;;;;;14.88;100.00;95864.56;1038671;28;20025;-75
2023/09/17 00:04:36;;;;;;;12.93;8.88;;;;;;;14.90;100.00;95871.13;1034767;28;20036;-74
2023/09/17 00:05:07;;;;;;;10.25;8.15;;;;;;;14.89;100.00;95861.66;1042601;28;20064;-74
2023/09/17 00:05:37;;;;;;;12.88;9.18;;;;;;;14.93;100.00;95873.19;1030488;28;20037;-76
2023/09/17 00:06:08;;;;;;;12.85;9.30;;;;;;;14.93;100.00;95867.13;1030345;28;20479;-74
2023/09/17 00:06:39;;;;;;;12.02;8.52;;;;;;;14.94;100.00;95866.06;1038429;28;20033;-75
2023/09/17 00:07:09;;;;;;;13.38;9.50;;;;;;;14.94;100.00;95868.69;1038812;28;20030;-77
2023/09/17 00:07:41;;;;;;;13.65;9.30;;;;;;;14.93;100.00;95873.19;1038669;28;20033;-73
2023/09/17 00:08:12;;;;;;;12.10;9.15;;;;;;;14.97;100.00;95868.91;1040586;28;20032;-74
2023/09/17 00:08:42;;;;;;;12.32;9.02;;;;;;;14.95;100.00;95871.03;1038581;28;20036;-73
2023/09/17 00:09:13;;;;;;;12.77;9.43;;;;;;;14.96;100.00;95866.56;1034586;28;20029;-73
2023/09/17 00:09:43;;;;;;;12.70;9.48;;;;;;;14.98;100.00;95872.34;1039094;28;20041;-74
2023/09/17 00:10:13;;;;;;;11.05;8.35;;;;;;;14.98;100.00;95877.63;1038108;28;20036;-74
2023/09/17 00:10:45;;;;;;;13.07;8.25;;;;;;;14.97;100.00;95870.78;1042631;28;20036;-73
2023/09/17 00:11:15;;;;;;;13.43;9.35;;;;;;;14.92;100.00;95865.53;1038547;28;20025;-74
2023/09/17 00:11:46;;;;;;;12.68;9.15;;;;;;;14.92;100.00;95865.53;1038353;28;20022;-73
2023/09/17 00:12:16;;;;;;;12.10;8.90;;;;;;;14.94;100.00;95871.34;1038577;28;20511;-74
2023/09/17 00:12:47;;;;;;;14.73;8.73;;;;;;;14.93;100.00;95873.19;1038502;28;20087;-74
2023/09/17 00:13:18;;;;;;;11.90;7.93;;;;;;;14.93;100.00;95875.06;1032238;28;20014;-76
2023/09/17 00:13:49;;;;;;;13.73;9.25;;;;;;;14.92;100.00;95871.59;1034592;28;20656;-75
2023/09/17 00:14:19;;;;;;;12.18;8.43;;;;;;;14.90;100.00;95871.13;1030541;28;20030;-76
2023/09/17 00:14:50;;;;;;;13.82;8.90;;;;;;;14.89;100.00;95871.41;1039272;28;20033;-75
2023/09/17 00:15:21;;;;;;;13.88;9.20;;;;;;;14.87;100.00;95869.06;1034663;28;20021;-73
2023/09/17 00:15:53;;;;;;;11.43;8.35;;;;;;;14.84;100.00;95864.34;1030446;28;20037;-74
2023/09/17 00:16:24;;;;;;;13.30;7.97;;;;;;;14.87;100.00;95874.34;1034587;28;20105;-73
2023/09/17 00:16:54;;;;;;;11.63;7.75;;;;;;;14.81;100.00;95864.91;1034225;28;20506;-74
2023/09/17 00:17:25;;;;;;;17.75;8.35;;;;;;;14.88;100.00;95875.13;1038552;28;20028;-73
2023/09/17 00:17:55;;;;;;;12.68;8.48;;;;;;;14.86;100.00;95872.78;1038548;28;20048;-73
2023/09/17 00:18:26;;;;;;;12.38;8.07;;;;;;;14.81;100.00;95870.19;1030297;28;20045;-76
2023/09/17 00:18:57;;;;;;;10.73;8.32;;;;;;;14.82;100.00;95869.13;1042491;28;20075;-73
2023/09/17 00:19:28;;;;;;;12.07;8.88;;;;;;;14.85;100.00;95872.00;1038623;28;20116;-75
2023/09/17 00:19:58;;;;;;;12.10;8.88;;;;;;;14.82;100.00;95864.66;1041982;28;20024;-75
2023/09/17 00:20:29;;;;;;;12.77;9.00;;;;;;;14.88;100.00;95875.13;1034500;28;20516;-75
2023/09/17 00:20:59;;;;;;;12.13;8.52;;;;;;;14.89;100.00;95874.03;1034302;28;20049;-73
2023/09/17 00:21:29;;;;;;;11.13;8.73;;;;;;;14.88;100.00;95872.47;1042730;28;20025;-74
2023/09/17 00:22:01;;;;;;;13.32;8.80;;;;;;;14.89;100.00;95871.41;1042810;28;20021;-74
2023/09/17 00:22:31;;;;;;;11.70;8.70;;;;;;;14.83;100.00;95863.56;1047021;28;20013;-73
2023/09/17 00:23:02;;;;;;;12.43;9.02;;;;;;;14.90;100.00;95873.00;1046613;28;20574;-75
2023/09/17 00:23:33;;;;;;;11.65;8.93;;;;;;;14.91;100.00;95869.25;1042596;28;20561;-73
2023/09/17 00:24:04;;;;;;;13.00;8.93;;;;;;;14.90;100.00;95870.34;1034684;28;20080;-73
2023/09/17 00:24:35;;;;;;;12.32;9.27;;;;;;;14.89;100.00;95866.13;1042740;28;20117;-74
2023/09/17 00:25:05;;;;;;;12.30;9.45;;;;;;;14.92;100.00;95871.59;1038338;28;20128;-73
2023/09/17 00:25:37;;;;;;;15.27;9.10;;;;;;;14.91;100.00;95864.75;1034517;28;20436;-73
2023/09/17 00:26:07;;;;;;;13.20;9.48;;;;;;;14.93;100.00;95867.13;1038650;28;20217;-74
2023/09/17 00:26:38;;;;;;;11.63;9.30;;;;;;;14.88;100.00;95864.56;1034588;28;20477;-73
2023/09/17 00:27:08;;;;;;;13.27;9.07;;;;;;;14.94;100.00;95873.97;1034424;28;20123;-74
2023/09/17 00:27:39;;;;;;;11.93;8.65;;;;;;;14.94;100.00;95872.13;1030815;28;20797;-74
2023/09/17 00:28:09;;;;;;;16.73;9.80;;;;;;;14.94;100.00;95869.47;1030554;28;20581;-75
2023/09/17 00:28:40;;;;;;;11.35;8.63;;;;;;;14.95;100.00;95872.91;1030874;28;20030;-74
2023/09/17 00:29:10;;;;;;;12.30;9.77;;;;;;;14.94;100.00;95874.75;1039245;28;20021;-74
2023/09/17 00:29:41;;;;;;;13.10;9.35;;;;;;;14.94;100.00;95873.97;1039326;28;20033;-75
2023/09/17 00:30:12;;;;;;;12.77;9.38;;;;;;;14.94;100.00;95873.97;1035829;28;20029;-74
2023/09/17 00:30:42;;;;;;;12.35;9.00;;;;;;;14.95;100.00;95873.69;1039449;28;20068;-74
2023/09/17 00:31:13;;;;;;;11.45;8.77;;;;;;;14.94;100.00;95873.97;1035255;28;20034;-73
2023/09/17 00:31:43;;;;;;;11.70;8.75;;;;;;;14.93;100.00;95869.78;1031231;28;20022;-74
2023/09/17 00:32:14;;;;;;;11.45;8.90;;;;;;;14.94;100.00;95871.34;1035252;28;20772;-73
2023/09/17 00:32:44;;;;;;;11.85;9.07;;;;;;;14.93;100.00;95872.41;1043535;28;20036;-75
2023/09/17 00:33:15;;;;;;;11.07;8.30;;;;;;;14.94;100.00;95879.25;1035248;28;20085;-75
2023/09/17 00:33:45;;;;;;;11.68;8.35;;;;;;;14.92;100.00;95876.13;1037828;28;20040;-74
2023/09/17 00:34:15;;;;;;;12.85;8.77;;;;;;;14.91;100.00;95877.19;1043384;28;20012;-74
2023/09/17 00:34:46;;;;;;;23.65;10.15;;;;;;;14.88;100.00;95875.13;1039490;28;20060;-75
2023/09/17 00:35:16;;;;;;;12.75;8.15;;;;;;;14.88;100.00;95880.41;1043274;28;20638;-74
2023/09/17 00:35:48;;;;;;;12.98;8.77;;;;;;;14.86;100.00;95878.06;1043363;28;20021;-74
2023/09/17 00:36:19;;;;;;;13.05;9.23;;;;;;;14.87;100.00;95886.78;1043554;28;20021;-74
2023/09/17 00:36:50;;;;;;;13.73;9.20;;;;;;;14.82;100.00;95882.31;1043149;28;20033;-76
2023/09/17 00:37:21;;;;;;;13.88;9.38;;;;;;;14.87;100.00;95878.84;1035138;28;20339;-74
2023/09/17 00:37:51;;;;;;;12.55;9.50;;;;;;;14.82;100.00;95877.03;1043272;28;20117;-74
2023/09/17 00:38:22;;;;;;;15.85;9.98;;;;;;;14.82;100.00;95877.84;1043487;28;20124;-73
2023/09/17 00:38:52;;;;;;;12.85;8.95;;;;;;;14.81;100.00;95873.63;1043385;28;20032;-74
2023/09/17 00:39:23;;;;;;;12.98;9.65;;;;;;;14.89;100.00;95889.91;1039446;28;20096;-74
2023/09/17 00:39:53;;;;;;;16.45;9.57;;;;;;;14.85;100.00;95882.56;1047598;28;20098;-74
2023/09/17 00:40:27;;;;;;;12.93;9.82;;;;;;;14.84;100.00;95885.47;1041613;28;20424;-73
2023/09/17 00:40:59;;;;;;;11.98;8.70;;;;;;;14.82;100.00;95880.50;1031246;28;20022;-75
2023/09/17 00:41:30;;;;;;;13.35;9.77;;;;;;;14.80;100.00;95879.19;1027245;28;20035;-75
2023/09/17 00:42:00;;;;;;;12.88;9.18;;;;;;;14.81;100.00;95881.53;1031601;28;20054;-74
2023/09/17 00:42:31;;;;;;;11.77;8.43;;;;;;;14.76;100.00;95878.22;1027530;28;20034;-74
2023/09/17 00:43:02;;;;;;;13.18;9.25;;;;;;;14.73;100.00;95869.00;1043442;28;20559;-74
2023/09/17 00:43:32;;;;;;;14.38;9.48;;;;;;;14.80;100.00;95885.25;1047442;28;20020;-75
2023/09/17 00:44:03;;;;;;;10.93;8.68;;;;;;;14.81;100.00;95883.41;1030796;28;20300;-73
2023/09/17 00:44:33;;;;;;;12.02;9.18;;;;;;;14.78;100.00;95883.97;1031136;28;20030;-75
2023/09/17 00:45:04;;;;;;;13.43;9.00;;;;;;;14.78;100.00;95882.13;1031407;28;20478;-76
2023/09/17 00:45:35;;;;;;;12.00;8.13;;;;;;;14.77;100.00;95883.19;1039480;28;20396;-74
2023/09/17 00:46:05;;;;;;;12.80;8.88;;;;;;;14.77;100.00;95880.53;1051709;28;20058;-74
2023/09/17 00:46:36;;;;;;;11.38;8.50;;;;;;;14.75;100.00;95885.31;1047641;28;20419;-74
2023/09/17 00:47:06;;;;;;;13.45;9.20;;;;;;;14.76;100.00;95881.63;1042923;28;20022;-75
2023/09/17 00:47:37;;;;;;;12.98;9.05;;;;;;;14.75;100.00;95882.69;1035068;28;20513;-75
2023/09/17 00:48:07;;;;;;;11.90;9.27;;;;;;;14.70;100.00;95880.13;1035320;28;20014;-74
2023/09/17 00:48:38;;;;;;;12.27;9.10;;;;;;;14.74;100.00;95882.97;1035221;28;20556;-74
2023/09/17 00:49:13;;;;;;;12.10;8.23;;;;;;;14.72;100.00;95878.00;1040116;28;20614;-74
2023/09/17 00:49:43;;;;;;;13.30;8.80;;;;;;;14.65;100.00;95874.91;1030854;28;20085;-74
2023/09/17 00:50:14;;;;;;;10.98;8.20;;;;;;;14.66;100.00;95876.47;1038626;28;20103;-74
2023/09/17 00:50:44;;;;;;;14.35;8.65;;;;;;;14.71;100.00;95886.97;1035112;28;20021;-75
2023/09/17 00:51:15;;;;;;;12.80;8.45;;;;;;;14.68;100.00;95882.25;1043367;28;20033;-73
2023/09/17 00:51:45;;;;;;;11.95;9.23;;;;;;;14.69;100.00;95883.84;1043447;28;20044;-74
2023/09/17 00:52:19;;;;;;;17.65;9.68;;;;;;;14.74;100.00;95890.91;1035011;28;20532;-76
2023/09/17 00:52:50;;;;;;;11.35;8.10;;;;;;;14.71;100.00;95888.81;1035185;28;20459;-75
2023/09/17 00:53:20;;;;;;;11.32;8.07;;;;;;;14.67;100.00;95888.59;1031084;28;20072;-74
2023/09/17 00:53:52;;;;;;;13.90;9.18;;;;;;;14.71;100.00;95886.97;1038369;28;20025;-74
2023/09/17 00:54:23;;;;;;;17.02;9.70;;;;;;;14.75;100.00;95885.31;1035157;28;20076;-75
2023/09/17 00:54:53;;;;;;;20.17;9.70;;;;;;;14.74;100.00;95882.97;1031113;28;20516;-73
2023/09/17 00:55:25;;;;;;;15.50;10.43;;;;;;;14.81;100.00;95878.13;1039255;28;20029;-74
2023/09/17 00:55:56;;;;;;;15.82;10.55;;;;;;;14.76;100.00;95883.50;1043457;28;20055;-74
2023/09/17 00:56:26;;;;;;;15.30;10.60;;;;;;;14.78;100.00;95876.03;1039182;28;20566;-74
2023/09/17 00:56:56;;;;;;;12.30;8.95;;;;;;;14.83;100.00;95884.69;1039501;28;20026;-75
2023/09/17 00:57:27;;;;;;;14.60;10.10;;;;;;;14.85;100.00;95887.84;1035013;28;20022;-75
2023/09/17 00:57:58;;;;;;;13.75;9.98;;;;;;;14.87;100.00;95894.69;1043246;28;20024;-74
2023/09/17 00:58:29;;;;;;;14.77;10.13;;;;;;;14.82;100.00;95883.13;1039373;28;20144;-75
2023/09/17 00:59:00;;;;;;;15.73;10.55;;;;;;;14.89;100.00;95882.78;1033610;28;20033;-72
2023/09/17 00:59:30;;;;;;;15.10;10.13;;;;;;;14.89;100.00;95887.25;1042978;28;20056;-74
2023/09/17 01:00:08;;;;;;;16.77;10.73;;;;;;;14.89;100.00;95887.25;1051273;28;20046;-73
2023/09/17 01:00:39;;;;;;;16.85;10.80;;;;;;;14.85;100.00;95877.28;1047385;28;20028;-73
2023/09/17 01:01:11;;;;;;;17.02;11.68;;;;;;;14.92;100.00;95891.97;1044628;28;20039;-74
2023/09/17 01:01:42;;;;;;;19.55;11.75;;;;;;;14.94;100.00;95889.84;1041891;28;20024;-73
2023/09/17 01:02:14;;;;;;;18.27;11.88;;;;;;;14.93;100.00;95889.06;1047360;28;20419;-74
2023/09/17 01:02:45;;;;;;;17.15;11.40;;;;;;;14.99;100.00;95889.75;1044038;28;20100;-74
2023/09/17 01:03:16;;;;;;;16.00;10.30;;;;;;;14.97;100.00;95889.28;1035046;28;20825;-73
2023/09/17 01:03:46;;;;;;;17.77;11.18;;;;;;;14.94;100.00;95879.25;1027775;28;20070;-74
2023/09/17 01:04:17;;;;;;;16.17;11.40;;;;;;;15.00;100.00;95893.97;1038130;28;20032;-74
2023/09/17 01:04:49;;;;;;;16.10;11.73;;;;;;;14.95;100.00;95880.81;1038369;28;20029;-73
2023/09/17 01:05:20;;;;;;;18.30;11.95;;;;;;;14.99;100.00;95895.03;1035077;28;20076;-74
2023/09/17 01:05:50;;;;;;;15.35;11.38;;;;;;;14.98;100.00;95888.97;1027156;28;20089;-75
2023/09/17 01:06:21;;;;;;;15.73;11.52;;;;;;;14.97;100.00;95886.63;1029049;28;20034;-74
2023/09/17 01:06:55;;;;;;;16.90;11.65;;;;;;;14.89;100.00;95877.50;1035224;28;20029;-74
2023/09/17 01:07:25;;;;;;;16.05;10.65;;;;;;;14.95;100.00;95888.75;1035991;28;20037;-75
2023/09/17 01:07:56;;;;;;;15.20;11.20;;;;;;;14.89;100.00;95881.97;1039671;28;20443;-76
2023/09/17 01:08:27;;;;;;;16.48;11.20;;;;;;;14.88;100.00;95878.53;1031529;28;20018;-74
2023/09/17 01:08:57;;;;;;;17.45;11.68;;;;;;;14.92;100.00;95887.47;1035044;28;20060;-75
2023/09/17 01:09:28;;;;;;;15.32;11.02;;;;;;;14.95;100.00;95881.59;1034160;28;20032;-74
2023/09/17 01:09:59;;;;;;;15.95;11.60;;;;;;;14.93;100.00;95880.34;1034221;28;20413;-76
2023/09/17 01:10:29;;;;;;;17.88;11.85;;;;;;;14.88;100.00;95870.63;1031169;28;20121;-74
2023/09/17 01:11:01;;;;;;;15.25;10.88;;;;;;;14.93;100.00;95878.50;1039070;28;20029;-74
2023/09/17 01:11:31;;;;;;;17.02;12.07;;;;;;;14.92;100.00;95873.47;1043222;28;20033;-75
2023/09/17 01:12:02;;;;;;;17.48;11.13;;;;;;;14.95;100.00;95886.13;1039140;28;20025;-75
2023/09/17 01:12:32;;;;;;;19.75;11.25;;;;;;;14.93;100.00;95881.13;1031091;28;20073;-75
2023/09/17 01:13:04;;;;;;;16.92;11.40;;;;;;;14.90;100.00;95870.34;1038704;28;20029;-75
2023/09/17 01:13:39;;;;;;;18.02;11.65;;;;;;;14.93;100.00;95870.56;1035105;28;20116;-76
2023/09/17 01:14:12;;;;;;;16.77;11.85;;;;;;;14.91;100.00;95871.91;1035043;28;20030;-76
2023/09/17 01:14:46;;;;;;;17.65;11.75;;;;;;;14.94;100.00;95871.34;1028204;28;20031;-75
2023/09/17 01:15:17;;;;;;;17.55;11.57;;;;;;;14.80;100.00;95858.06;1032632;28;20113;-74
2023/09/17 01:15:47;;;;;;;13.68;10.40;;;;;;;14.95;100.00;95865.75;1038019;28;20029;-75
2023/09/17 01:16:18;;;;;;;15.18;10.80;;;;;;;14.94;100.00;95869.47;1048223;28;20090;-74
2023/09/17 01:16:49;;;;;;;14.77;11.35;;;;;;;14.92;100.00;95871.59;1051375;28;20020;-74
2023/09/17 01:17:19;;;;;;;16.48;10.32;;;;;;;14.94;100.00;95873.97;1038781;28;20025;-75
2023/09/17 01:17:54;;;;;;;17.05;11.73;;;;;;;14.88;100.00;95859.28;1030981;28;20038;-76
2023/09/17 01:18:27;;;;;;;14.73;10.75;;;;;;;14.91;100.00;95866.63;1030596;28;20157;-75
2023/09/17 01:18:59;;;;;;;15.65;10.90;;;;;;;14.93;100.00;95867.13;1034853;28;20021;-77
2023/09/17 01:19:32;;;;;;;16.98;11.32;;;;;;;14.91;100.00;95871.91;1034972;28;20115;-75
2023/09/17 01:20:24;;;;;;;21.63;11.85;;;;;;;14.90;100.00;95868.50;1031856;28;20050;-74
2023/09/17 01:21:04;;;;;;;18.73;10.85;;;;;;;14.92;100.00;95876.13;1030221;28;20776;-75
2023/09/17 01:21:38;;;;;;;17.40;11.02;;;;;;;14.94;100.00;95876.63;1035335;28;20026;-74
2023/09/17 01:22:38;;;;;;;15.90;10.77;;;;;;;14.94;100.00;95873.97;1035430;28;20022;-75
2023/09/17 01:23:14;;;;;;;15.15;10.30;;;;;;;14.94;100.00;95871.34;1022608;29;20042;-74
2023/09/17 01:23:50;;;;;;;17.98;10.68;;;;;;;14.88;100.00;95867.97;1031494;28;20100;-76
2023/09/17 01:24:21;;;;;;;15.90;10.88;;;;;;;14.87;100.00;95868.28;1033051;28;20601;-74
2023/09/17 01:25:15;;;;;;;15.75;10.90;;;;;;;14.93;100.00;95872.41;1031028;28;20032;-74
2023/09/17 01:25:54;;;;;;;15.95;11.15;;;;;;;14.93;100.00;95872.41;1038980;28;20480;-74
2023/09/17 01:26:26;;;;;;;15.40;10.50;;;;;;;14.93;100.00;95872.41;1035254;28;20758;-75
2023/09/17 01:26:58;;;;;;;18.13;11.00;;;;;;;14.91;100.00;95870.06;1041488;28;20025;-74
2023/09/17 01:27:28;;;;;;;16.75;11.05;;;;;;;14.92;100.00;95870.84;1038477;28;20603;-74
2023/09/17 01:28:00;;;;;;;17.00;11.93;;;;;;;14.88;100.00;95869.84;1036178;28;20093;-74
2023/09/17 01:28:31;;;;;;;17.70;10.73;;;;;;;14.88;100.00;95865.34;1038920;28;20420;-74
2023/09/17 01:29:05;;;;;;;15.55;11.45;;;;;;;14.91;100.00;95874.56;1034896;28;20100;-74
2023/09/17 01:29:39;;;;;;;17.25;10.75;;;;;;;14.90;100.00;95875.63;1034721;28;20033;-76
2023/09/17 01:30:15;;;;;;;16.92;11.05;;;;;;;14.89;100.00;95871.41;1038435;28;20559;-76
2023/09/17 01:30:46;;;;;;;15.45;11.05;;;;;;;14.88;100.00;95875.13;1040929;28;20041;-74
2023/09/17 01:31:17;;;;;;;14.63;10.30;;;;;;;14.85;100.00;95872.00;1040575;28;20026;-75
2023/09/17 01:31:47;;;;;;;16.75;11.02;;;;;;;14.84;100.00;95867.75;1043289;28;20071;-76
2023/09/17 01:32:18;;;;;;;18.17;11.10;;;;;;;14.85;100.00;95872.00;1047299;28;20036;-75
2023/09/17 01:32:48;;;;;;;17.27;12.13;;;;;;;14.84;100.00;95867.75;1047342;28;20466;-73
2023/09/17 01:33:19;;;;;;;15.30;10.88;;;;;;;14.81;100.00;95865.69;1047217;28;20594;-73
2023/09/17 01:33:49;;;;;;;15.25;11.00;;;;;;;14.79;100.00;95867.84;1037836;28;20033;-76
2023/09/17 01:34:20;;;;;;;18.08;10.95;;;;;;;14.84;100.00;95870.41;1035003;28;20018;-74
2023/09/17 01:34:52;;;;;;;18.15;11.38;;;;;;;14.83;100.00;95868.06;1026985;28;20573;-73
2023/09/17 01:35:23;;;;;;;19.98;11.68;;;;;;;14.82;100.00;95869.13;1027083;28;20308;-74
2023/09/17 01:36:14;;;;;;;18.45;11.32;;;;;;;14.81;100.00;95870.97;1042938;28;20021;-74
2023/09/17 01:36:45;;;;;;;16.60;11.48;;;;;;;14.82;100.00;95872.56;1034900;28;20036;-74
2023/09/17 01:37:24;;;;;;;22.10;11.45;;;;;;;14.79;100.00;95867.06;1031428;28;20501;-74
2023/09/17 01:37:57;;;;;;;19.10;11.85;;;;;;;14.82;100.00;95877.84;1030823;28;20030;-73
2023/09/17 01:38:32;;;;;;;16.65;11.43;;;;;;;14.78;100.00;95876.81;1026881;28;20080;-74
2023/09/17 01:39:05;;;;;;;19.48;11.10;;;;;;;14.80;100.00;95876.56;1038963;28;20075;-74
2023/09/17 01:39:40;;;;;;;17.20;11.20;;;;;;;14.80;100.00;95873.91;1034909;28;20026;-73
2023/09/17 01:40:14;;;;;;;20.35;12.35;;;;;;;14.79;100.00;95872.34;1029604;28;20080;-74
2023/09/17 01:40:48;;;;;;;16.15;11.43;;;;;;;14.77;100.00;95874.47;1034600;28;20584;-75
2023/09/17 01:41:18;;;;;;;14.80;10.45;;;;;;;14.72;100.00;95861.34;1038950;28;20021;-74
2023/09/17 01:41:49;;;;;;;19.40;12.27;;;;;;;14.72;100.00;95867.44;1034941;28;20805;-74
2023/09/17 01:42:20;;;;;;;20.92;11.35;;;;;;;14.77;100.00;95872.63;1030588;28;20031;-75
2023/09/17 01:42:50;;;;;;;19.15;12.82;;;;;;;14.76;100.00;95873.72;1026824;28;20441;-74
2023/09/17 01:43:20;;;;;;;20.15;12.73;;;;;;;14.76;100.00;95871.06;1034897;28;20084;-72
2023/09/17 01:43:51;;;;;;;16.58;11.20;;;;;;;14.74;100.00;95880.34;1038828;28;20347;-73
2023/09/17 01:44:24;;;;;;;17.60;12.02;;;;;;;14.68;100.00;95855.84;1034427;28;20076;-73
2023/09/17 01:44:55;;;;;;;24.75;12.82;;;;;;;14.74;100.00;95873.19;1034888;28;20093;-75
2023/09/17 01:45:26;;;;;;;17.02;11.52;;;;;;;14.73;100.00;95874.28;1035875;28;20493;-76
2023/09/17 01:45:57;;;;;;;24.23;12.05;;;;;;;14.68;100.00;95869.03;1034910;28;20030;-74
2023/09/17 01:46:27;;;;;;;17.95;12.38;;;;;;;14.69;100.00;95875.91;1041916;28;20114;-73
2023/09/17 01:47:00;;;;;;;17.73;11.23;;;;;;;14.68;100.00;95871.69;1042996;28;20033;-74
2023/09/17 01:47:30;;;;;;;16.35;10.77;;;;;;;14.65;100.00;95872.25;1038796;28;20492;-74
2023/09/17 01:48:02;;;;;;;18.30;11.70;;;;;;;14.58;100.00;95862.03;1030780;28;20022;-73
2023/09/17 01:48:32;;;;;;;18.08;11.25;;;;;;;14.63;100.00;95879.69;1034363;28;20072;-73
2023/09/17 01:49:03;;;;;;;20.98;11.30;;;;;;;14.60;100.00;95869.69;1034699;28;20041;-74
2023/09/17 01:49:34;;;;;;;18.73;11.40;;;;;;;14.59;100.00;95874.19;1035083;28;20045;-76
2023/09/17 01:50:06;;;;;;;18.35;11.30;;;;;;;14.60;100.00;95867.06;1030306;28;20508;-75
2023/09/17 01:50:37;;;;;;;17.52;12.40;;;;;;;14.61;100.00;95863.34;1035044;28;20109;-73
2023/09/17 01:51:08;;;;;;;20.50;13.30;;;;;;;14.65;100.00;95866.97;1038804;28;20029;-74
2023/09/17 01:51:38;;;;;;;19.48;13.77;;;;;;;14.73;100.00;95871.63;1030821;28;20089;-75
2023/09/17 01:52:09;;;;;;;21.13;13.68;;;;;;;14.73;100.00;95874.28;1031144;28;20105;-77
2023/09/17 01:52:40;;;;;;;17.05;12.38;;;;;;;14.74;100.00;95870.56;1034776;28;20045;-74
2023/09/17 01:53:11;;;;;;;23.27;14.20;;;;;;;14.75;100.00;95869.47;1032563;28;20064;-74
2023/09/17 01:53:42;;;;;;;19.13;12.82;;;;;;;14.69;100.00;95862.72;1030846;28;20033;-74
2023/09/17 01:54:14;;;;;;;19.25;12.18;;;;;;;14.75;100.00;95872.13;1033027;28;20032;-73
2023/09/17 01:54:44;;;;;;;20.95;13.63;;;;;;;14.74;100.00;95875.06;1034666;28;20504;-75
2023/09/17 01:55:15;;;;;;;21.38;13.45;;;;;;;14.75;100.00;95872.13;1030832;28;20030;-74
2023/09/17 01:55:45;;;;;;;21.15;12.55;;;;;;;14.75;100.00;95877.41;1038690;28;20472;-74
2023/09/17 01:56:17;;;;;;;22.20;13.45;;;;;;;14.76;100.00;95881.63;1034207;28;20038;-74
2023/09/17 01:56:48;;;;;;;23.27;13.60;;;;;;;14.74;100.00;95878.47;1034877;28;20091;-75
2023/09/17 01:57:18;;;;;;;17.58;12.82;;;;;;;14.74;100.00;95881.13;1034365;28;20083;-74
2023/09/17 01:57:49;;;;;;;19.75;13.48;;;;;;;14.75;100.00;95877.41;1031849;28;20034;-74
2023/09/17 01:58:21;;;;;;;19.70;13.00;;;;;;;14.70;100.00;95874.84;1047241;28;20028;-74
2023/09/17 01:58:52;;;;;;;20.65;13.85;;;;;;;14.74;100.00;95881.13;1038772;28;20752;-76
2023/09/17 01:59:22;;;;;;;19.83;13.43;;;;;;;14.76;100.00;95884.28;1038971;28;20013;-74
2023/09/17 01:59:53;;;;;;;19.52;12.60;;;;;;;14.74;100.00;95881.13;1038499;28;20492;-74
2023/09/17 02:00:24;;;;;;;22.80;14.18;;;;;;;14.69;100.00;95870.63;1034367;28;20021;-73
2023/09/17 02:00:56;;;;;;;20.98;14.43;;;;;;;14.74;100.00;95881.13;1042848;28;20029;-74
2023/09/17 02:01:27;;;;;;;23.65;14.77;;;;;;;14.76;100.00;95878.22;1039220;28;20825;-74
2023/09/17 02:01:58;;;;;;;19.85;13.95;;;;;;;14.77;100.00;95877.91;1035288;28;20049;-75
2023/09/17 02:02:28;;;;;;;20.15;14.25;;;;;;;14.76;100.00;95883.50;1038699;28;20029;-76
2023/09/17 02:02:59;;;;;;;21.95;14.68;;;;;;;14.77;100.00;95875.25;1030435;28;20026;-72
2023/09/17 02:03:30;;;;;;;24.75;14.05;;;;;;;14.78;100.00;95879.47;1030825;28;20113;-74
2023/09/17 02:04:01;;;;;;;24.83;14.57;;;;;;;14.74;100.00;95883.75;1038859;28;20499;-74
2023/09/17 02:04:32;;;;;;;23.00;13.68;;;;;;;14.72;100.00;95878.00;1039434;28;20049;-76
2023/09/17 02:05:02;;;;;;;20.80;13.98;;;;;;;14.72;100.00;95882.47;1038956;28;20032;-75
2023/09/17 02:05:33;;;;;;;25.17;14.32;;;;;;;14.71;100.00;95881.69;1042770;28;20028;-74
2023/09/17 02:06:04;;;;;;;20.90;13.68;;;;;;;14.70;100.00;95884.63;1034831;28;20638;-74
2023/09/17 02:06:36;;;;;;;19.00;12.77;;;;;;;14.64;100.00;95886.53;1037763;28;20025;-76
2023/09/17 02:07:06;;;;;;;19.88;13.02;;;;;;;14.66;100.00;95879.13;1042902;28;20032;-75
2023/09/17 02:07:37;;;;;;;24.27;15.27;;;;;;;14.70;100.00;95877.47;1043132;28;20025;-74
2023/09/17 02:08:07;;;;;;;21.35;13.57;;;;;;;14.60;100.00;95877.63;1042837;28;20063;-74
2023/09/17 02:08:38;;;;;;;20.33;12.80;;;;;;;14.59;100.00;95870.78;1034836;28;20028;-74
2023/09/17 02:09:08;;;;;;;17.42;12.18;;;;;;;14.63;100.00;95884.19;1026764;28;20028;-74
2023/09/17 02:09:39;;;;;;;25.92;13.40;;;;;;;14.55;100.00;95877.66;1030549;28;20026;-73
2023/09/17 02:10:09;;;;;;;19.98;13.00;;;;;;;14.59;100.00;95883.97;1034588;28;20064;-76
2023/09/17 02:10:40;;;;;;;19.35;12.75;;;;;;;14.58;100.00;95887.66;1047048;28;20067;-74
2023/09/17 02:11:11;;;;;;;21.98;12.45;;;;;;;14.47;100.00;95873.78;1042591;28;20531;-75
2023/09/17 02:11:41;;;;;;;17.63;11.15;;;;;;;14.54;100.00;95890.09;1041831;28;20021;-75
2023/09/17 02:12:12;;;;;;;24.25;11.80;;;;;;;14.52;100.00;95888.78;1042921;28;20069;-74
2023/09/17 02:12:42;;;;;;;17.70;12.20;;;;;;;14.52;100.00;95894.06;1034774;28;20026;-75
2023/09/17 02:13:12;;;;;;;21.70;12.48;;;;;;;14.51;100.00;95884.59;1036299;28;20172;-75
2023/09/17 02:13:43;;;;;;;18.50;11.50;;;;;;;14.50;100.00;95886.44;1034906;28;20022;-74
2023/09/17 02:14:15;;;;;;;18.65;11.50;;;;;;;14.49;100.00;95884.06;1043046;28;20017;-75
2023/09/17 02:14:45;;;;;;;19.10;12.45;;;;;;;14.52;100.00;95888.78;1038616;28;20485;-73
2023/09/17 02:15:16;;;;;;;18.17;11.93;;;;;;;14.45;100.00;95880.41;1035190;28;20089;-74
2023/09/17 02:15:46;;;;;;;19.20;12.50;;;;;;;14.48;100.00;95882.50;1038457;28;20398;-75
2023/09/17 02:16:16;;;;;;;23.08;13.52;;;;;;;14.49;100.00;95884.84;1047174;28;20044;-76
2023/09/17 02:16:47;;;;;;;19.77;13.00;;;;;;;14.48;100.00;95887.78;1046913;28;20078;-75
2023/09/17 02:17:18;;;;;;;23.02;14.80;;;;;;;14.50;100.00;95885.63;1047285;28;20024;-73
2023/09/17 02:17:52;;;;;;;26.25;14.48;;;;;;;14.52;100.00;95883.50;1051455;28;20012;-75
2023/09/17 02:18:22;;;;;;;22.15;14.05;;;;;;;14.56;100.00;95890.59;1042894;28;20090;-75
2023/09/17 02:18:54;;;;;;;24.42;14.70;;;;;;;14.59;100.00;95897.19;1043221;28;20558;-75
2023/09/17 02:19:25;;;;;;;22.58;13.88;;;;;;;14.63;100.00;95900.03;1042909;28;20815;-75
2023/09/17 02:19:55;;;;;;;25.08;13.40;;;;;;;14.61;100.00;95895.03;1035051;28;20390;-73
2023/09/17 02:20:26;;;;;;;23.98;14.90;;;;;;;14.58;100.00;95892.94;1043091;28;20028;-74
2023/09/17 02:20:56;;;;;;;21.83;13.90;;;;;;;14.60;100.00;95896.09;1038933;28;20018;-74
2023/09/17 02:21:27;;;;;;;23.52;15.02;;;;;;;14.60;100.00;95896.09;1034245;28;20022;-74
2023/09/17 02:21:57;;;;;;;22.42;13.65;;;;;;;14.59;100.00;95900.59;1037926;28;20492;-73
2023/09/17 02:22:28;;;;;;;25.23;13.57;;;;;;;14.59;100.00;95899.81;1038246;28;20432;-74
2023/09/17 02:22:59;;;;;;;19.80;13.35;;;;;;;14.57;100.00;95891.38;1042647;28;20020;-74
2023/09/17 02:23:29;;;;;;;20.75;13.80;;;;;;;14.53;100.00;95890.38;1045417;28;20028;-75
2023/09/17 02:24:00;;;;;;;21.25;13.77;;;;;;;14.51;100.00;95893.28;1043011;28;20021;-73